Time;durP1;ratioP1;P1;durP2;ratioP2;P2;SDS_P1;SDS_P2;PMS_P1;PMS_P2;Temp;Humidity;BMP_temperature;BMP_pressure;BME280_temperature;BME280_humidity;BME280_pressure;Samples;Min_cycle;Max_cycle;Signal;HPM_P1;HPM_P2
2023/08/23 00:01:58;;;;;;;7.97;5.87;;;;;;;;;;5057005;28;20571;-74
2023/08/23 00:05:02;;;;;;;8.37;5.00;;;;;;;;;;5056646;28;20176;-74
2023/08/23 00:08:07;;;;;;;6.17;5.57;;;;;;;;;;5057087;28;20196;-74
2023/08/23 00:11:11;;;;;;;9.60;5.97;;;;;;;;;;5056542;28;20196;-74
2023/08/23 00:14:16;;;;;;;6.47;5.23;;;;;;;;;;5056420;28;20208;-74
2023/08/23 00:17:20;;;;;;;8.23;5.87;;;;;;;;;;5044429;28;20180;-74
2023/08/23 00:20:24;;;;;;;7.07;5.20;;;;;;;;;;5056334;28;20188;-74
2023/08/23 00:23:28;;;;;;;9.33;5.93;;;;;;;;;;5044254;28;20219;-74
2023/08/23 00:26:32;;;;;;;6.50;5.03;;;;;;;;;;5043727;28;20172;-74
2023/08/23 00:29:37;;;;;;;8.60;6.07;;;;;;;;;;5056698;28;20200;-74
2023/08/23 00:32:41;;;;;;;6.80;5.43;;;;;;;;;;5043820;28;20683;-74
2023/08/23 00:35:45;;;;;;;8.83;5.80;;;;;;;;;;5032065;28;20201;-74
2023/08/23 00:38:49;;;;;;;9.87;5.80;;;;;;;;;;5055867;28;20181;-74
2023/08/23 00:41:54;;;;;;;8.30;5.60;;;;;;;;;;5021100;28;20215;-74
2023/08/23 00:44:58;;;;;;;6.23;5.60;;;;;;;;;;5032246;28;20180;-74
2023/08/23 00:48:03;;;;;;;8.93;5.47;;;;;;;;;;5042720;28;20180;-74
2023/08/23 00:51:09;;;;;;;7.43;5.40;;;;;;;;;;5055802;28;20200;-74
2023/08/23 00:54:13;;;;;;;6.10;4.93;;;;;;;;;;5043127;28;20216;-74
2023/08/23 00:57:17;;;;;;;7.03;5.27;;;;;;;;;;5043659;28;20184;-74
2023/08/23 01:00:22;;;;;;;7.93;5.73;;;;;;;;;;5043227;28;20200;-74
2023/08/23 01:03:26;;;;;;;5.33;4.83;;;;;;;;;;5042848;28;20568;-74
2023/08/23 01:06:30;;;;;;;6.20;5.47;;;;;;;;;;5031988;28;20663;-74
2023/08/23 01:09:48;;;;;;;5.87;5.27;;;;;;;;;;5042998;28;20620;-74
2023/08/23 01:13:04;;;;;;;5.70;5.20;;;;;;;;;;5054998;28;20221;-74
2023/08/23 01:16:15;;;;;;;5.83;5.23;;;;;;;;;;5042796;28;20173;-74
2023/08/23 01:19:38;;;;;;;8.00;5.30;;;;;;;;;;5043014;28;20540;-74
2023/08/23 01:22:50;;;;;;;7.07;5.33;;;;;;;;;;5055140;28;20204;-74
2023/08/23 01:25:54;;;;;;;5.30;4.80;;;;;;;;;;5055191;28;20181;-74
2023/08/23 01:29:00;;;;;;;5.53;5.03;;;;;;;;;;5042765;28;20173;-74
2023/08/23 01:32:22;;;;;;;6.33;4.50;;;;;;;;;;5054963;28;20560;-74
2023/08/23 01:35:38;;;;;;;7.47;4.87;;;;;;;;;;5031070;28;20220;-74
2023/08/23 01:38:42;;;;;;;7.43;5.27;;;;;;;;;;5055123;28;20185;-73
2023/08/23 01:41:47;;;;;;;5.90;5.30;;;;;;;;;;5042779;28;20221;-73
2023/08/23 01:44:51;;;;;;;8.93;5.50;;;;;;;;;;5042874;28;20184;-73
2023/08/23 01:47:55;;;;;;;15.53;5.73;;;;;;;;;;5054467;28;20196;-72
2023/08/23 01:50:59;;;;;;;14.17;7.30;;;;;;;;;;5054523;28;20200;-72
2023/08/23 01:54:04;;;;;;;10.17;6.80;;;;;;;;;;5042004;28;20205;-72
2023/08/23 01:57:08;;;;;;;8.77;6.30;;;;;;;;;;5030879;28;20183;-72
2023/08/23 02:00:12;;;;;;;8.33;6.70;;;;;;;;;;5030863;28;20628;-72
2023/08/23 02:03:20;;;;;;;9.00;7.00;;;;;;;;;;5042351;28;20216;-72
2023/08/23 02:06:24;;;;;;;7.27;6.13;;;;;;;;;;5054259;28;20177;-72
2023/08/23 02:09:31;;;;;;;9.57;6.53;;;;;;;;;;5041808;28;20179;-72
2023/08/23 02:12:35;;;;;;;11.33;7.23;;;;;;;;;;5041848;28;20220;-72
2023/08/23 02:15:39;;;;;;;8.97;7.30;;;;;;;;;;5041570;28;20235;-72
2023/08/23 02:18:43;;;;;;;10.70;7.13;;;;;;;;;;5030517;28;20195;-72
2023/08/23 02:21:48;;;;;;;7.50;6.63;;;;;;;;;;5041732;28;20224;-72
2023/08/23 02:24:52;;;;;;;12.60;6.50;;;;;;;;;;5041706;28;20180;-72
2023/08/23 02:27:57;;;;;;;6.93;6.20;;;;;;;;;;5054211;28;20180;-72
2023/08/23 02:31:02;;;;;;;11.57;6.83;;;;;;;;;;5041743;28;20185;-72
2023/08/23 02:34:07;;;;;;;10.70;7.13;;;;;;;;;;5054012;28;20219;-72
2023/08/23 02:37:11;;;;;;;7.63;6.63;;;;;;;;;;5041262;28;20199;-72
2023/08/23 02:40:15;;;;;;;9.53;6.60;;;;;;;;;;5041276;28;20180;-72
2023/08/23 02:43:19;;;;;;;8.77;7.20;;;;;;;;;;5041369;28;20220;-72
2023/08/23 02:46:23;;;;;;;7.80;7.00;;;;;;;;;;5029929;28;20516;-72
2023/08/23 02:49:27;;;;;;;8.27;7.10;;;;;;;;;;5041416;28;20176;-72
2023/08/23 02:52:32;;;;;;;10.23;6.70;;;;;;;;;;5041237;28;20223;-72
2023/08/23 02:55:37;;;;;;;8.50;6.97;;;;;;;;;;5041172;28;20569;-72
2023/08/23 02:58:41;;;;;;;9.23;7.60;;;;;;;;;;5041492;28;20176;-72
2023/08/23 03:01:45;;;;;;;10.73;7.20;;;;;;;;;;5040851;28;20695;-72
2023/08/23 03:04:49;;;;;;;8.83;6.77;;;;;;;;;;5041139;28;20200;-72
2023/08/23 03:07:53;;;;;;;10.63;7.37;;;;;;;;;;5040861;28;20172;-72
2023/08/23 03:11:05;;;;;;;9.07;7.60;;;;;;;;;;5040734;28;20562;-72
2023/08/23 03:14:09;;;;;;;10.53;7.50;;;;;;;;;;5029968;28;20651;-72
2023/08/23 03:17:13;;;;;;;8.37;7.33;;;;;;;;;;5029915;28;20208;-72
2023/08/23 03:20:18;;;;;;;7.67;6.97;;;;;;;;;;5053446;28;20180;-72
2023/08/23 03:23:22;;;;;;;9.43;7.03;;;;;;;;;;5040684;28;20211;-72
2023/08/23 03:26:28;;;;;;;7.47;6.57;;;;;;;;;;5030425;28;20497;-72
2023/08/23 03:29:36;;;;;;;10.10;7.50;;;;;;;;;;5040959;28;20508;-72
2023/08/23 03:32:41;;;;;;;11.23;7.80;;;;;;;;;;5040812;28;20226;-72
2023/08/23 03:35:51;;;;;;;7.83;7.03;;;;;;;;;;5029111;28;20228;-72
2023/08/23 03:38:55;;;;;;;8.77;7.13;;;;;;;;;;5040541;28;20192;-72
2023/08/23 03:42:00;;;;;;;12.10;7.33;;;;;;;;;;5040649;28;20216;-72
2023/08/23 03:45:05;;;;;;;11.50;7.80;;;;;;;;;;5040744;28;20186;-72
2023/08/23 03:48:09;;;;;;;9.87;7.13;;;;;;;;;;5040425;28;20188;-72
2023/08/23 03:51:14;;;;;;;9.70;6.93;;;;;;;;;;5052919;28;20180;-72
2023/08/23 03:54:20;;;;;;;8.77;7.53;;;;;;;;;;5040533;28;20176;-72
2023/08/23 03:57:24;;;;;;;8.50;7.60;;;;;;;;;;5029353;28;20180;-72
2023/08/23 04:00:28;;;;;;;7.93;7.20;;;;;;;;;;5052643;28;20176;-72
2023/08/23 04:03:32;;;;;;;12.43;7.20;;;;;;;;;;5052576;28;20639;-72
2023/08/23 04:06:37;;;;;;;10.87;6.60;;;;;;;;;;5040468;28;20192;-72
2023/08/23 04:09:41;;;;;;;7.27;6.57;;;;;;;;;;5052862;28;20188;-72
2023/08/23 04:12:45;;;;;;;7.00;6.40;;;;;;;;;;5018169;28;20544;-72
2023/08/23 04:15:49;;;;;;;7.87;7.10;;;;;;;;;;5040195;28;20212;-72
2023/08/23 04:18:54;;;;;;;7.13;5.87;;;;;;;;;;5052423;28;20176;-72
2023/08/23 04:21:58;;;;;;;8.00;6.73;;;;;;;;;;5040455;28;20216;-72
2023/08/23 04:25:03;;;;;;;7.63;6.40;;;;;;;;;;5032103;28;20173;-72
2023/08/23 04:28:07;;;;;;;8.80;6.50;;;;;;;;;;5056792;28;20176;-72
2023/08/23 04:31:11;;;;;;;6.83;6.10;;;;;;;;;;5043642;28;20534;-72
2023/08/23 04:34:23;;;;;;;7.53;6.10;;;;;;;;;;5043702;28;20208;-72
2023/08/23 04:37:27;;;;;;;12.20;7.77;;;;;;;;;;5043536;28;20180;-72
2023/08/23 04:40:32;;;;;;;7.90;7.07;;;;;;;;;;5004201;28;20192;-73
2023/08/23 04:43:36;;;;;;;7.03;6.33;;;;;;;;;;5003794;28;20629;-73
2023/08/23 04:46:44;;;;;;;8.00;7.30;;;;;;;;;;5003825;28;20193;-73
2023/08/23 04:49:48;;;;;;;10.43;6.50;;;;;;;;;;5003864;28;20519;-73
2023/08/23 04:52:54;;;;;;;8.83;7.10;;;;;;;;;;5015013;28;20228;-73
2023/08/23 04:55:58;;;;;;;8.60;6.77;;;;;;;;;;5014890;28;20206;-73
2023/08/23 04:59:02;;;;;;;8.30;7.50;;;;;;;;;;5015656;28;20177;-72
2023/08/23 05:02:06;;;;;;;8.27;7.30;;;;;;;;;;5014973;28;20209;-73
2023/08/23 05:05:10;;;;;;;9.30;7.30;;;;;;;;;;5014771;28;20177;-73
2023/08/23 05:08:15;;;;;;;7.87;7.17;;;;;;;;;;5010045;28;20205;-71
2023/08/23 05:11:19;;;;;;;7.53;6.67;;;;;;;;;;5031784;28;20184;-71
2023/08/23 05:14:23;;;;;;;8.13;6.80;;;;;;;;;;5023035;28;20514;-72
2023/08/23 05:17:27;;;;;;;7.67;6.20;;;;;;;;;;5011657;28;20545;-72
2023/08/23 05:20:31;;;;;;;6.90;6.27;;;;;;;;;;4999876;28;20540;-71
2023/08/23 05:23:35;;;;;;;7.30;6.40;;;;;;;;;;5022546;28;20180;-72
2023/08/23 05:26:40;;;;;;;8.27;6.53;;;;;;;;;;5023299;28;20181;-71
2023/08/23 05:29:44;;;;;;;10.27;6.33;;;;;;;;;;5023136;28;20628;-72
2023/08/23 05:32:48;;;;;;;6.93;6.23;;;;;;;;;;5022551;28;20209;-72
2023/08/23 05:35:52;;;;;;;9.13;6.63;;;;;;;;;;5022340;28;20568;-72
2023/08/23 05:38:56;;;;;;;8.07;6.47;;;;;;;;;;5022857;28;20192;-73
2023/08/23 05:42:00;;;;;;;8.43;6.13;;;;;;;;;;5022298;28;20228;-72
2023/08/23 05:45:05;;;;;;;6.90;5.77;;;;;;;;;;5023283;28;20173;-73
2023/08/23 05:48:09;;;;;;;8.20;6.53;;;;;;;;;;5011355;28;20189;-72
2023/08/23 05:51:13;;;;;;;10.87;6.73;;;;;;;;;;5034590;28;20196;-72
2023/08/23 05:54:17;;;;;;;7.67;6.90;;;;;;;;;;5034688;28;20659;-72
2023/08/23 05:57:22;;;;;;;7.93;6.20;;;;;;;;;;5034594;28;20177;-72
2023/08/23 06:00:26;;;;;;;8.10;7.30;;;;;;;;;;5034568;28;20185;-72
2023/08/23 06:03:30;;;;;;;8.80;7.17;;;;;;;;;;5034216;28;20220;-71
2023/08/23 06:06:34;;;;;;;8.00;7.20;;;;;;;;;;4999638;28;20192;-72
2023/08/23 06:09:38;;;;;;;7.70;6.90;;;;;;;;;;5033370;28;20180;-72
2023/08/23 06:12:43;;;;;;;9.63;7.10;;;;;;;;;;5033463;28;20216;-72
2023/08/23 06:15:47;;;;;;;7.73;6.93;;;;;;;;;;5032396;28;20204;-72
2023/08/23 06:18:51;;;;;;;8.00;7.17;;;;;;;;;;5022059;28;20177;-72
2023/08/23 06:21:56;;;;;;;9.97;6.80;;;;;;;;;;5033947;28;20208;-73
2023/08/23 06:25:00;;;;;;;6.77;6.07;;;;;;;;;;5010388;28;20204;-72
2023/08/23 06:28:04;;;;;;;9.10;6.60;;;;;;;;;;5033965;28;20181;-72
2023/08/23 06:31:17;;;;;;;7.63;6.40;;;;;;;;;;5033851;28;20173;-72
2023/08/23 06:34:21;;;;;;;9.20;7.57;;;;;;;;;;5033642;28;20664;-73
2023/08/23 06:37:25;;;;;;;11.00;7.30;;;;;;;;;;5032850;28;20190;-73
2023/08/23 06:40:30;;;;;;;8.73;7.60;;;;;;;;;;5021370;28;20177;-73
2023/08/23 06:43:34;;;;;;;11.10;7.63;;;;;;;;;;5033513;28;20181;-73
2023/08/23 06:46:38;;;;;;;9.83;7.13;;;;;;;;;;5033168;28;20178;-73
2023/08/23 06:49:42;;;;;;;12.50;7.17;;;;;;;;;;5021712;28;20181;-72
2023/08/23 06:52:46;;;;;;;10.57;7.57;;;;;;;;;;5033681;28;20213;-73
2023/08/23 06:55:50;;;;;;;9.83;7.43;;;;;;;;;;5033266;28;20207;-72
2023/08/23 06:58:55;;;;;;;10.50;7.40;;;;;;;;;;5014571;28;20193;-71
2023/08/23 07:02:00;;;;;;;10.37;7.33;;;;;;;;;;5033501;28;20220;-71
2023/08/23 07:05:04;;;;;;;11.03;7.27;;;;;;;;;;4998665;28;20190;-71
2023/08/23 07:08:08;;;;;;;14.53;7.97;;;;;;;;;;5033481;28;20175;-71
2023/08/23 07:11:12;;;;;;;8.33;7.37;;;;;;;;;;5033335;28;20203;-71
2023/08/23 07:14:16;;;;;;;8.10;6.87;;;;;;;;;;5021437;28;20182;-71
2023/08/23 07:17:20;;;;;;;9.63;8.10;;;;;;;;;;5033561;28;20547;-71
2023/08/23 07:20:25;;;;;;;10.07;7.80;;;;;;;;;;5033077;28;20180;-71
2023/08/23 07:23:29;;;;;;;8.93;8.00;;;;;;;;;;5032985;28;20222;-72
2023/08/23 07:26:33;;;;;;;10.40;7.20;;;;;;;;;;5033238;28;20536;-72
2023/08/23 07:29:37;;;;;;;14.43;7.13;;;;;;;;;;5033094;28;20575;-71
2023/08/23 07:32:42;;;;;;;10.57;6.70;;;;;;;;;;5021034;28;20232;-72
2023/08/23 07:35:54;;;;;;;9.23;6.90;;;;;;;;;;5020781;28;20237;-72
2023/08/23 07:38:57;;;;;;;8.63;7.23;;;;;;;;;;5020958;28;20198;-72
2023/08/23 07:42:01;;;;;;;9.40;7.03;;;;;;;;;;5032838;28;20219;-71
2023/08/23 07:45:07;;;;;;;7.13;6.43;;;;;;;;;;5020681;28;20185;-72
2023/08/23 07:48:11;;;;;;;12.83;7.87;;;;;;;;;;5021009;28;20183;-72
2023/08/23 07:51:16;;;;;;;7.90;7.10;;;;;;;;;;5020563;28;20204;-72
2023/08/23 07:54:20;;;;;;;10.93;7.50;;;;;;;;;;5033465;28;20188;-71
2023/08/23 07:57:24;;;;;;;9.93;6.57;;;;;;;;;;5021368;28;20224;-72
2023/08/23 08:00:28;;;;;;;17.00;14.15;;;;;;;;;;5024140;28;20656;-71
2023/08/23 08:03:33;;;;;;;11.57;8.93;;;;;;;;;;5038455;28;20221;-72
2023/08/23 08:06:39;;;;;;;6.30;5.70;;;;;;;;;;5012918;28;20190;-71
2023/08/23 08:09:43;;;;;;;8.07;5.45;;;;;;;;;;5028358;28;20549;-71
2023/08/23 08:12:47;;;;;;;7.68;5.38;;;;;;;;;;5021498;28;20230;-71
2023/08/23 08:15:51;;;;;;;5.82;5.20;;;;;;;;;;5019374;28;20695;-71
2023/08/23 08:18:55;;;;;;;9.50;4.82;;;;;;;;;;4993457;28;20176;-72
2023/08/23 08:21:59;;;;;;;10.70;7.38;;;;;;;;;;5033196;28;20274;-72
2023/08/23 08:25:04;;;;;;;6.88;4.85;;;;;;;;;;5016543;28;20651;-72
2023/08/23 08:28:10;;;;;;;8.50;4.70;;;;;;;;;;5016845;28;20184;-71
2023/08/23 08:31:14;;;;;;;5.68;4.72;;;;;;;;;;5023675;28;20662;-70
2023/08/23 08:34:18;;;;;;;5.95;4.25;;;;;;;;;;5036154;28;20199;-72
2023/08/23 08:37:25;;;;;;;7.05;4.80;;;;;;;;;;5020059;28;20231;-71
2023/08/23 08:40:29;;;;;;;5.03;4.30;;;;;;;;;;5023885;28;20199;-71
2023/08/23 08:43:35;;;;;;;7.65;4.18;;;;;;;;;;5024129;28;20214;-72
2023/08/23 08:46:39;;;;;;;8.82;5.30;;;;;;;;;;5016401;28;20170;-72
2023/08/23 08:49:43;;;;;;;8.27;4.45;;;;;;;;;;5003759;28;20185;-72
2023/08/23 08:52:52;;;;;;;4.50;3.90;;;;;;;;;;5026281;28;20213;-72
2023/08/23 08:55:58;;;;;;;10.82;6.95;;;;;;;;;;5015703;28;20193;-72
2023/08/23 08:59:03;;;;;;;7.05;4.15;;;;;;;;;;5018891;28;20192;-71
2023/08/23 09:02:10;;;;;;;8.93;6.32;;;;;;;;;;5035749;28;20216;-72
2023/08/23 09:05:16;;;;;;;5.85;3.42;;;;;;;;;;5035673;28;20181;-72
2023/08/23 09:08:20;;;;;;;3.63;3.30;;;;;;;;;;5035666;28;20533;-72
2023/08/23 09:11:24;;;;;;;4.22;3.00;;;;;;;;;;5023230;28;20189;-72
2023/08/23 09:14:29;;;;;;;4.45;3.40;;;;;;;;;;5023336;28;20173;-72
2023/08/23 09:17:35;;;;;;;6.07;3.63;;;;;;;;;;5035445;28;20208;-72
2023/08/23 09:20:42;;;;;;;4.95;3.70;;;;;;;;;;5035625;28;20193;-73
2023/08/23 09:23:46;;;;;;;4.68;4.00;;;;;;;;;;5035278;28;20178;-72
2023/08/23 09:26:51;;;;;;;5.90;4.10;;;;;;;;;;5013875;28;20193;-72
2023/08/23 09:30:01;;;;;;;4.68;3.40;;;;;;;;;;5034915;28;20212;-72
2023/08/23 09:33:09;;;;;;;6.95;3.45;;;;;;;;;;5023166;28;20545;-72
2023/08/23 09:36:40;;;;;;;4.80;3.30;;;;;;;;;;5033478;28;20209;-72
2023/08/23 09:39:44;;;;;;;6.45;3.92;;;;;;;;;;5015547;28;20178;-74
2023/08/23 09:42:53;;;;;;;6.72;3.28;;;;;;;;;;5015402;28;20217;-73
2023/08/23 09:45:58;;;;;;;5.13;2.88;;;;;;;;;;5014875;28;20177;-73
2023/08/23 09:49:07;;;;;;;8.05;3.30;;;;;;;;;;5027867;28;20261;-75
2023/08/23 09:52:11;;;;;;;9.60;4.05;;;;;;;;;;5025135;28;20680;-75
2023/08/23 09:55:16;;;;;;;16.00;3.90;;;;;;;;;;5023321;28;20205;-74
2023/08/23 09:58:21;;;;;;;24.02;8.13;;;;;;;;;;5029030;28;20213;-75
2023/08/23 10:01:26;;;;;;;94.82;11.10;;;;;;;;;;5034501;28;20192;-75
2023/08/23 10:04:30;;;;;;;8.20;4.07;;;;;;;;;;5034222;28;20200;-75
2023/08/23 10:07:35;;;;;;;22.70;8.30;;;;;;;;;;5034130;28;20223;-74
2023/08/23 10:10:42;;;;;;;45.22;7.30;;;;;;;;;;5031145;28;20216;-75
2023/08/23 10:13:47;;;;;;;5.80;3.72;;;;;;;;;;5022458;28;20184;-73
2023/08/23 10:16:51;;;;;;;8.77;3.58;;;;;;;;;;5034067;28;20213;-73
2023/08/23 10:19:56;;;;;;;9.73;4.25;;;;;;;;;;5033976;28;20196;-73
2023/08/23 10:23:00;;;;;;;7.00;4.47;;;;;;;;;;5033250;28;20220;-74
2023/08/23 10:26:04;;;;;;;6.25;4.15;;;;;;;;;;5034021;28;20197;-74
2023/08/23 10:29:09;;;;;;;6.72;3.58;;;;;;;;;;5010910;28;20200;-73
2023/08/23 10:32:13;;;;;;;6.38;4.03;;;;;;;;;;5033924;28;20221;-74
2023/08/23 10:35:28;;;;;;;4.30;3.40;;;;;;;;;;5033649;28;20660;-73
2023/08/23 10:38:32;;;;;;;6.35;3.20;;;;;;;;;;5000257;28;20221;-73
2023/08/23 10:41:36;;;;;;;6.15;3.83;;;;;;;;;;5031092;28;20224;-73
2023/08/23 10:44:57;;;;;;;4.95;3.63;;;;;;;;;;5033854;28;20173;-73
2023/08/23 10:48:01;;;;;;;4.93;3.42;;;;;;;;;;5033377;28;20169;-73
2023/08/23 10:51:06;;;;;;;4.43;3.40;;;;;;;;;;5033562;28;20664;-73
2023/08/23 10:54:11;;;;;;;5.50;3.38;;;;;;;;;;5032971;28;20178;-73
2023/08/23 10:57:17;;;;;;;6.97;3.45;;;;;;;;;;5021451;28;20216;-74
2023/08/23 11:00:21;;;;;;;7.97;4.03;;;;;;;;;;5033450;28;20554;-72
2023/08/23 11:03:28;;;;;;;5.95;5.35;;;;;;;;;;5021055;28;20220;-74
2023/08/23 11:06:33;;;;;;;6.40;5.78;;;;;;;;;;5033265;28;20204;-73
2023/08/23 11:09:37;;;;;;;7.95;4.43;;;;;;;;;;5033341;28;20201;-73
2023/08/23 11:12:41;;;;;;;7.00;3.50;;;;;;;;;;5033240;28;20212;-73
2023/08/23 11:15:45;;;;;;;5.20;3.88;;;;;;;;;;5021206;28;20185;-73
2023/08/23 11:18:50;;;;;;;13.85;6.07;;;;;;;;;;5021109;28;20205;-73
2023/08/23 11:21:54;;;;;;;7.93;3.60;;;;;;;;;;5033130;28;20227;-73
2023/08/23 11:24:59;;;;;;;5.30;3.70;;;;;;;;;;5033256;28;20181;-73
2023/08/23 11:28:05;;;;;;;8.93;4.47;;;;;;;;;;5020942;28;20185;-73
2023/08/23 11:31:10;;;;;;;10.68;6.07;;;;;;;;;;5032963;28;20181;-73
2023/08/23 11:34:14;;;;;;;7.28;4.10;;;;;;;;;;5035763;28;20692;-73
2023/08/23 11:37:18;;;;;;;7.47;4.90;;;;;;;;;;5037407;28;20205;-73
2023/08/23 11:40:23;;;;;;;8.00;3.60;;;;;;;;;;5025048;28;20181;-73
2023/08/23 11:43:28;;;;;;;7.53;3.72;;;;;;;;;;5036825;28;20213;-72
2023/08/23 11:46:38;;;;;;;12.80;8.68;;;;;;;;;;5024799;28;20193;-73
2023/08/23 11:49:41;;;;;;;6.03;3.72;;;;;;;;;;5037223;28;20186;-73
2023/08/23 11:52:49;;;;;;;7.45;3.70;;;;;;;;;;5036715;28;20220;-75
2023/08/23 11:55:57;;;;;;;6.75;3.90;;;;;;;;;;5024532;28;20196;-75
2023/08/23 11:59:01;;;;;;;3.42;2.97;;;;;;;;;;5036360;28;20236;-74
2023/08/23 12:02:07;;;;;;;4.53;3.40;;;;;;;;;;5024369;28;20216;-75
2023/08/23 12:05:13;;;;;;;4.30;3.38;;;;;;;;;;5013111;28;20197;-75
2023/08/23 12:08:17;;;;;;;6.20;3.40;;;;;;;;;;5024554;28;20656;-75
2023/08/23 12:11:21;;;;;;;5.82;3.40;;;;;;;;;;5036471;28;20177;-75
2023/08/23 12:14:28;;;;;;;5.25;3.45;;;;;;;;;;5026576;28;20208;-74
2023/08/23 12:17:32;;;;;;;4.95;3.22;;;;;;;;;;5023593;28;20232;-74
2023/08/23 12:20:36;;;;;;;4.95;3.47;;;;;;;;;;5037009;28;20189;-74
2023/08/23 12:23:41;;;;;;;6.63;3.17;;;;;;;;;;5036034;28;20177;-73
2023/08/23 12:26:45;;;;;;;5.93;3.50;;;;;;;;;;5036376;28;20649;-73
2023/08/23 12:29:49;;;;;;;6.82;3.50;;;;;;;;;;5035942;28;20198;-73
2023/08/23 12:32:53;;;;;;;7.45;3.70;;;;;;;;;;5036174;28;20221;-73
2023/08/23 12:35:57;;;;;;;7.15;3.03;;;;;;;;;;5035045;28;20209;-73
2023/08/23 12:39:01;;;;;;;3.42;3.10;;;;;;;;;;5023757;28;20208;-73
2023/08/23 12:42:06;;;;;;;4.32;2.83;;;;;;;;;;5036058;28;20216;-73
2023/08/23 12:45:10;;;;;;;4.97;3.38;;;;;;;;;;5034873;28;20177;-73
2023/08/23 12:48:15;;;;;;;4.68;3.60;;;;;;;;;;5023760;28;20523;-73
2023/08/23 12:51:19;;;;;;;4.00;3.60;;;;;;;;;;5023772;28;20177;-73
2023/08/23 12:54:24;;;;;;;4.47;3.22;;;;;;;;;;5035817;28;20204;-73
2023/08/23 12:57:29;;;;;;;5.35;3.83;;;;;;;;;;5035506;28;20213;-73
2023/08/23 13:00:33;;;;;;;4.40;3.30;;;;;;;;;;5035750;28;20542;-73
2023/08/23 13:03:37;;;;;;;5.70;3.70;;;;;;;;;;5035965;28;20181;-73
2023/08/23 13:06:41;;;;;;;9.77;3.80;;;;;;;;;;5012539;28;20185;-73
2023/08/23 13:09:45;;;;;;;4.47;3.17;;;;;;;;;;5035017;28;20173;-73
2023/08/23 13:12:49;;;;;;;7.05;4.13;;;;;;;;;;5023491;28;20692;-73
2023/08/23 13:15:53;;;;;;;6.13;3.58;;;;;;;;;;5035309;28;20641;-72
2023/08/23 13:18:57;;;;;;;5.28;3.33;;;;;;;;;;5035595;28;20652;-73
2023/08/23 13:22:02;;;;;;;5.22;3.33;;;;;;;;;;5035126;28;20217;-73
2023/08/23 13:25:07;;;;;;;6.07;3.17;;;;;;;;;;5035432;28;20185;-73
2023/08/23 13:28:11;;;;;;;4.85;2.88;;;;;;;;;;5035362;28;20182;-73
2023/08/23 13:31:15;;;;;;;5.80;3.25;;;;;;;;;;5034873;28;20177;-73
2023/08/23 13:34:19;;;;;;;5.20;3.15;;;;;;;;;;5034902;28;20208;-73
2023/08/23 13:37:23;;;;;;;5.63;3.35;;;;;;;;;;5033849;28;20185;-73
2023/08/23 13:40:27;;;;;;;4.63;3.20;;;;;;;;;;5011503;28;20525;-73
2023/08/23 13:43:33;;;;;;;7.63;3.13;;;;;;;;;;5034946;28;20252;-73
2023/08/23 13:46:36;;;;;;;8.38;3.70;;;;;;;;;;5022469;28;20185;-74
2023/08/23 13:49:41;;;;;;;5.95;4.40;;;;;;;;;;5034902;28;20178;-73
2023/08/23 13:52:45;;;;;;;9.90;6.28;;;;;;;;;;5034357;28;20700;-73
2023/08/23 13:55:49;;;;;;;8.15;5.32;;;;;;;;;;5034503;28;20185;-72
2023/08/23 13:58:53;;;;;;;5.72;3.75;;;;;;;;;;5033877;28;20205;-73
2023/08/23 14:01:57;;;;;;;8.15;4.20;;;;;;;;;;5034186;28;20704;-73
2023/08/23 14:05:01;;;;;;;6.95;4.75;;;;;;;;;;5034433;28;20629;-72
2023/08/23 14:08:05;;;;;;;5.13;3.70;;;;;;;;;;5022455;28;20181;-73
2023/08/23 14:11:09;;;;;;;6.45;4.63;;;;;;;;;;5011032;28;20181;-74
2023/08/23 14:14:13;;;;;;;9.15;7.22;;;;;;;;;;5034343;28;20181;-73
2023/08/23 14:17:17;;;;;;;8.77;6.53;;;;;;;;;;5034229;28;20173;-73
2023/08/23 14:20:22;;;;;;;7.82;4.60;;;;;;;;;;5034108;28;20177;-73
2023/08/23 14:23:27;;;;;;;12.13;5.72;;;;;;;;;;5033869;28;20563;-72
2023/08/23 14:26:31;;;;;;;9.88;5.63;;;;;;;;;;5022096;28;20187;-72
2023/08/23 14:29:35;;;;;;;17.38;14.73;;;;;;;;;;5032986;28;20181;-72
2023/08/23 14:32:47;;;;;;;17.55;13.07;;;;;;;;;;5033879;28;20223;-72
2023/08/23 14:35:51;;;;;;;10.02;6.82;;;;;;;;;;5034021;28;20701;-72
2023/08/23 14:38:55;;;;;;;9.68;3.85;;;;;;;;;;5022244;28;20217;-72
2023/08/23 14:41:59;;;;;;;5.75;3.45;;;;;;;;;;5033783;28;20691;-72
2023/08/23 14:45:04;;;;;;;7.00;4.80;;;;;;;;;;5033870;28;20185;-72
2023/08/23 14:48:08;;;;;;;7.22;3.95;;;;;;;;;;5033553;28;20177;-72
2023/08/23 14:51:12;;;;;;;12.32;3.80;;;;;;;;;;5033591;28;20181;-72
2023/08/23 14:54:16;;;;;;;5.90;3.83;;;;;;;;;;5033344;28;20181;-72
2023/08/23 14:57:21;;;;;;;4.68;3.53;;;;;;;;;;5033979;28;20177;-72
2023/08/23 15:00:28;;;;;;;5.13;3.97;;;;;;;;;;5033491;28;20181;-73
2023/08/23 15:03:32;;;;;;;4.85;4.07;;;;;;;;;;5021527;28;20209;-72
2023/08/23 15:06:36;;;;;;;7.20;4.97;;;;;;;;;;5033185;28;20629;-73
2023/08/23 15:09:43;;;;;;;6.53;4.57;;;;;;;;;;5033649;28;20529;-73
2023/08/23 15:12:47;;;;;;;7.03;4.45;;;;;;;;;;5033265;28;20656;-72
2023/08/23 15:15:59;;;;;;;5.00;4.40;;;;;;;;;;5032514;28;20185;-72
2023/08/23 15:19:04;;;;;;;9.45;6.57;;;;;;;;;;5021019;28;20221;-73
2023/08/23 15:22:10;;;;;;;11.50;7.60;;;;;;;;;;5032845;28;20217;-73
2023/08/23 15:25:15;;;;;;;11.82;6.32;;;;;;;;;;5033715;28;20185;-72
2023/08/23 15:28:19;;;;;;;7.22;5.03;;;;;;;;;;5020829;28;20173;-72
2023/08/23 15:31:23;;;;;;;7.95;6.30;;;;;;;;;;5033220;28;20185;-72
2023/08/23 15:34:34;;;;;;;13.45;10.05;;;;;;;;;;5033120;28;20204;-72
2023/08/23 15:37:38;;;;;;;12.60;10.45;;;;;;;;;;5020765;28;20188;-73
2023/08/23 15:40:42;;;;;;;7.25;5.50;;;;;;;;;;5033207;28;20192;-73
2023/08/23 15:43:48;;;;;;;8.30;3.72;;;;;;;;;;5032994;28;20181;-73
2023/08/23 15:46:52;;;;;;;7.50;3.78;;;;;;;;;;5033039;28;20181;-73
2023/08/23 15:49:56;;;;;;;17.30;12.65;;;;;;;;;;5033057;28;20517;-73
2023/08/23 15:53:00;;;;;;;13.82;10.82;;;;;;;;;;5032713;28;20223;-73
2023/08/23 15:56:04;;;;;;;18.92;12.75;;;;;;;;;;5032938;28;20196;-72
2023/08/23 15:59:08;;;;;;;18.30;11.40;;;;;;;;;;5020946;28;20215;-73
2023/08/23 16:02:12;;;;;;;13.23;10.63;;;;;;;;;;5009122;28;20224;-73
2023/08/23 16:05:16;;;;;;;9.18;6.50;;;;;;;;;;5032650;28;20196;-73
2023/08/23 16:08:21;;;;;;;7.43;4.00;;;;;;;;;;5032863;28;20178;-72
2023/08/23 16:11:26;;;;;;;8.57;3.78;;;;;;;;;;5032654;28;20201;-72
2023/08/23 16:14:30;;;;;;;5.35;3.55;;;;;;;;;;5032887;28;20201;-72
2023/08/23 16:17:34;;;;;;;5.07;4.22;;;;;;;;;;5032711;28;20201;-72
2023/08/23 16:20:39;;;;;;;7.38;4.88;;;;;;;;;;5036304;28;20184;-72
2023/08/23 16:23:43;;;;;;;9.35;5.82;;;;;;;;;;5024371;28;20177;-72
2023/08/23 16:26:47;;;;;;;5.43;4.10;;;;;;;;;;5036287;28;20512;-72
2023/08/23 16:29:54;;;;;;;16.05;8.15;;;;;;;;;;5036180;28;20180;-73
2023/08/23 16:32:58;;;;;;;13.85;7.75;;;;;;;;;;5036181;28;20217;-72
2023/08/23 16:36:02;;;;;;;10.27;7.10;;;;;;;;;;5023568;28;20204;-73
2023/08/23 16:39:06;;;;;;;11.68;10.35;;;;;;;;;;5023886;28;20219;-72
2023/08/23 16:42:11;;;;;;;10.27;8.50;;;;;;;;;;5035961;28;20229;-72
2023/08/23 16:45:15;;;;;;;8.05;4.82;;;;;;;;;;5035945;28;20193;-72
2023/08/23 16:48:19;;;;;;;5.57;4.55;;;;;;;;;;5036173;28;20189;-73
2023/08/23 16:51:23;;;;;;;10.88;5.57;;;;;;;;;;5035408;28;20177;-73
2023/08/23 16:54:27;;;;;;;9.73;6.70;;;;;;;;;;5035683;28;20551;-73
2023/08/23 16:57:34;;;;;;;9.65;7.80;;;;;;;;;;5034663;28;20198;-73
2023/08/23 17:00:38;;;;;;;7.97;5.47;;;;;;;;;;5035436;28;20188;-72
2023/08/23 17:03:42;;;;;;;7.25;4.20;;;;;;;;;;5036046;28;20183;-73
2023/08/23 17:06:47;;;;;;;5.95;4.20;;;;;;;;;;5023323;28;20615;-73
2023/08/23 17:09:54;;;;;;;6.72;3.97;;;;;;;;;;5035793;28;20184;-72
2023/08/23 17:13:00;;;;;;;4.32;3.88;;;;;;;;;;5035246;28;20222;-72
2023/08/23 17:16:04;;;;;;;4.10;3.70;;;;;;;;;;5023128;28;20187;-72
2023/08/23 17:19:09;;;;;;;5.00;3.80;;;;;;;;;;5034889;28;20231;-72
2023/08/23 17:22:13;;;;;;;8.20;4.45;;;;;;;;;;5022880;28;20213;-73
2023/08/23 17:25:16;;;;;;;5.00;4.28;;;;;;;;;;5023021;28;20623;-73
2023/08/23 17:28:21;;;;;;;5.60;3.85;;;;;;;;;;5035464;28;20192;-73
2023/08/23 17:31:24;;;;;;;6.32;3.85;;;;;;;;;;5034509;28;20637;-74
2023/08/23 17:34:28;;;;;;;6.90;4.28;;;;;;;;;;5034964;28;20209;-73
2023/08/23 17:37:33;;;;;;;5.50;4.03;;;;;;;;;;5035132;28;20193;-73
2023/08/23 17:40:37;;;;;;;7.35;4.30;;;;;;;;;;5034613;28;20214;-73
2023/08/23 17:43:41;;;;;;;5.03;3.60;;;;;;;;;;5022468;28;20183;-72
2023/08/23 17:46:45;;;;;;;9.25;3.80;;;;;;;;;;5035018;28;20523;-72
2023/08/23 17:49:49;;;;;;;8.38;4.30;;;;;;;;;;5034639;28;20192;-72
2023/08/23 17:52:53;;;;;;;8.70;4.20;;;;;;;;;;5034212;28;20214;-72
2023/08/23 17:56:02;;;;;;;5.68;4.38;;;;;;;;;;5033521;28;20180;-72
2023/08/23 17:59:06;;;;;;;7.80;4.00;;;;;;;;;;5034523;28;20206;-75
2023/08/23 18:02:11;;;;;;;6.18;3.90;;;;;;;;;;5034666;28;20220;-72
2023/08/23 18:05:14;;;;;;;5.32;4.20;;;;;;;;;;5034539;28;20180;-72
2023/08/23 18:08:18;;;;;;;4.43;4.00;;;;;;;;;;5034474;28;20185;-73
2023/08/23 18:11:22;;;;;;;5.47;3.45;;;;;;;;;;5022258;28;20270;-74
2023/08/23 18:14:27;;;;;;;4.85;4.40;;;;;;;;;;5034964;28;20181;-73
2023/08/23 18:17:31;;;;;;;5.38;4.45;;;;;;;;;;5022241;28;20179;-73
2023/08/23 18:20:35;;;;;;;6.80;4.78;;;;;;;;;;5034092;28;20212;-73
2023/08/23 18:23:39;;;;;;;7.38;4.60;;;;;;;;;;5022190;28;20179;-73
2023/08/23 18:26:43;;;;;;;6.10;4.68;;;;;;;;;;5034169;28;20637;-73